sensor_id;sensor_type;location;lat;lon;timestamp;temperature;humidity
40153;DHT22;26371;56.992;23.912;2024-03-23T00:56:13;5.90;99.90
40153;DHT22;26371;56.992;23.912;2024-03-23T00:58:51;6.00;99.90
40153;DHT22;26371;56.992;23.912;2024-03-23T01:01:22;6.00;99.90
40153;DHT22;26371;56.992;23.912;2024-03-23T01:04:08;5.90;99.90
40153;DHT22;26371;56.992;23.912;2024-03-23T01:06:47;6.00;99.90
40153;DHT22;26371;56.992;23.912;2024-03-23T01:09:29;6.00;99.90
40153;DHT22;26371;56.992;23.912;2024-03-23T01:11:59;6.00;99.90
40153;DHT22;26371;56.992;23.912;2024-03-23T01:14:29;6.00;99.90
40153;DHT22;26371;56.992;23.912;2024-03-23T01:16:56;6.00;99.90
40153;DHT22;26371;56.992;23.912;2024-03-23T01:19:23;5.90;99.90
40153;DHT22;26371;56.992;23.912;2024-03-23T01:21:50;5.90;99.90
40153;DHT22;26371;56.992;23.912;2024-03-23T01:24:18;5.80;99.90
40153;DHT22;26371;56.992;23.912;2024-03-23T01:26:44;5.80;99.90
40153;DHT22;26371;56.992;23.912;2024-03-23T01:29:12;5.80;99.90
40153;DHT22;26371;56.992;23.912;2024-03-23T01:31:41;5.80;99.90
40153;DHT22;26371;56.992;23.912;2024-03-23T01:34:08;5.80;99.90
40153;DHT22;26371;56.992;23.912;2024-03-23T01:36:35;5.80;99.90
40153;DHT22;26371;56.992;23.912;2024-03-23T01:39:03;5.80;99.90
40153;DHT22;26371;56.992;23.912;2024-03-23T01:41:30;5.90;99.90
40153;DHT22;26371;56.992;23.912;2024-03-23T01:44:05;5.90;99.90
40153;DHT22;26371;56.992;23.912;2024-03-23T01:46:32;5.90;99.90
40153;DHT22;26371;56.992;23.912;2024-03-23T01:49:01;5.90;99.90
40153;DHT22;26371;56.992;23.912;2024-03-23T01:51:29;5.90;99.90
40153;DHT22;26371;56.992;23.912;2024-03-23T01:53:57;5.90;99.90
40153;DHT22;26371;56.992;23.912;2024-03-23T01:56:23;5.90;99.90
40153;DHT22;26371;56.992;23.912;2024-03-23T01:58:51;5.90;99.90
40153;DHT22;26371;56.992;23.912;2024-03-23T02:01:18;5.90;99.90
40153;DHT22;26371;56.992;23.912;2024-03-23T02:03:45;5.90;99.90
40153;DHT22;26371;56.992;23.912;2024-03-23T02:06:13;5.90;99.90
40153;DHT22;26371;56.992;23.912;2024-03-23T02:08:41;5.90;99.90
40153;DHT22;26371;56.992;23.912;2024-03-23T02:11:09;5.90;99.90
40153;DHT22;26371;56.992;23.912;2024-03-23T02:13:36;5.90;99.90
40153;DHT22;26371;56.992;23.912;2024-03-23T02:16:04;5.90;99.90
40153;DHT22;26371;56.992;23.912;2024-03-23T02:18:32;5.90;99.90
40153;DHT22;26371;56.992;23.912;2024-03-23T02:20:59;5.80;99.90
40153;DHT22;26371;56.992;23.912;2024-03-23T02:23:28;5.70;99.90
40153;DHT22;26371;56.992;23.912;2024-03-23T02:25:54;5.70;99.90
40153;DHT22;26371;56.992;23.912;2024-03-23T02:28:22;5.70;99.90
40153;DHT22;26371;56.992;23.912;2024-03-23T02:30:49;5.60;99.90
40153;DHT22;26371;56.992;23.912;2024-03-23T02:33:17;5.60;99.90
40153;DHT22;26371;56.992;23.912;2024-03-23T02:35:44;5.60;99.90
40153;DHT22;26371;56.992;23.912;2024-03-23T02:38:12;5.60;99.90
40153;DHT22;26371;56.992;23.912;2024-03-23T02:40:40;5.60;99.90
40153;DHT22;26371;56.992;23.912;2024-03-23T02:43:07;5.50;99.90
40153;DHT22;26371;56.992;23.912;2024-03-23T02:45:34;5.50;99.90
40153;DHT22;26371;56.992;23.912;2024-03-23T02:48:02;5.50;99.90
40153;DHT22;26371;56.992;23.912;2024-03-23T02:50:28;5.40;99.90
40153;DHT22;26371;56.992;23.912;2024-03-23T02:52:56;5.40;99.90
40153;DHT22;26371;56.992;23.912;2024-03-23T02:55:23;5.40;99.90
40153;DHT22;26371;56.992;23.912;2024-03-23T02:57:52;5.40;99.90
40153;DHT22;26371;56.992;23.912;2024-03-23T03:00:18;5.40;99.90
40153;DHT22;26371;56.992;23.912;2024-03-23T03:02:46;5.40;99.90
40153;DHT22;26371;56.992;23.912;2024-03-23T03:05:13;5.40;99.90
40153;DHT22;26371;56.992;23.912;2024-03-23T03:07:40;5.30;99.90
40153;DHT22;26371;56.992;23.912;2024-03-23T03:10:07;5.30;99.90
40153;DHT22;26371;56.992;23.912;2024-03-23T03:12:37;5.30;99.90
40153;DHT22;26371;56.992;23.912;2024-03-23T03:15:06;5.30;99.90
40153;DHT22;26371;56.992;23.912;2024-03-23T03:17:34;5.30;99.90
40153;DHT22;26371;56.992;23.912;2024-03-23T03:20:01;5.20;99.90
40153;DHT22;26371;56.992;23.912;2024-03-23T03:22:31;5.20;99.90
40153;DHT22;26371;56.992;23.912;2024-03-23T03:24:57;5.20;99.90
40153;DHT22;26371;56.992;23.912;2024-03-23T03:27:26;5.20;99.90
40153;DHT22;26371;56.992;23.912;2024-03-23T03:29:52;5.20;99.90
40153;DHT22;26371;56.992;23.912;2024-03-23T03:32:22;5.20;99.90
40153;DHT22;26371;56.992;23.912;2024-03-23T03:34:50;5.20;99.90
40153;DHT22;26371;56.992;23.912;2024-03-23T03:37:18;5.10;99.90
40153;DHT22;26371;56.992;23.912;2024-03-23T03:39:45;5.10;99.90
40153;DHT22;26371;56.992;23.912;2024-03-23T03:42:12;5.00;99.90
40153;DHT22;26371;56.992;23.912;2024-03-23T03:44:39;4.90;99.90
40153;DHT22;26371;56.992;23.912;2024-03-23T03:47:06;4.90;99.90
40153;DHT22;26371;56.992;23.912;2024-03-23T03:49:34;4.90;99.90
40153;DHT22;26371;56.992;23.912;2024-03-23T03:52:02;4.80;99.90
40153;DHT22;26371;56.992;23.912;2024-03-23T03:54:29;4.70;99.90
40153;DHT22;26371;56.992;23.912;2024-03-23T03:56:57;4.70;99.90
40153;DHT22;26371;56.992;23.912;2024-03-23T03:59:24;4.60;99.90
40153;DHT22;26371;56.992;23.912;2024-03-23T04:01:51;4.70;99.90
40153;DHT22;26371;56.992;23.912;2024-03-23T04:04:18;4.60;99.90
40153;DHT22;26371;56.992;23.912;2024-03-23T04:06:48;4.60;99.90
40153;DHT22;26371;56.992;23.912;2024-03-23T04:09:15;4.50;99.90
40153;DHT22;26371;56.992;23.912;2024-03-23T04:11:42;4.50;99.90
40153;DHT22;26371;56.992;23.912;2024-03-23T04:14:09;4.50;99.90
40153;DHT22;26371;56.992;23.912;2024-03-23T04:16:37;4.40;99.90
40153;DHT22;26371;56.992;23.912;2024-03-23T04:19:03;4.30;99.90
40153;DHT22;26371;56.992;23.912;2024-03-23T04:21:31;4.30;99.90
40153;DHT22;26371;56.992;23.912;2024-03-23T04:23:59;4.30;99.90
40153;DHT22;26371;56.992;23.912;2024-03-23T04:26:26;4.20;99.90
40153;DHT22;26371;56.992;23.912;2024-03-23T04:28:54;4.20;99.90
40153;DHT22;26371;56.992;23.912;2024-03-23T04:31:21;4.10;99.90
40153;DHT22;26371;56.992;23.912;2024-03-23T04:33:48;4.20;99.90
40153;DHT22;26371;56.992;23.912;2024-03-23T04:36:15;4.10;99.90
40153;DHT22;26371;56.992;23.912;2024-03-23T04:38:42;4.10;99.90
40153;DHT22;26371;56.992;23.912;2024-03-23T04:41:13;4.10;99.90
40153;DHT22;26371;56.992;23.912;2024-03-23T04:43:41;4.00;99.90
40153;DHT22;26371;56.992;23.912;2024-03-23T04:46:12;4.00;99.90
40153;DHT22;26371;56.992;23.912;2024-03-23T04:48:44;4.00;99.90
40153;DHT22;26371;56.992;23.912;2024-03-23T04:51:19;4.00;99.90
40153;DHT22;26371;56.992;23.912;2024-03-23T04:53:47;4.00;99.90
40153;DHT22;26371;56.992;23.912;2024-03-23T04:56:17;3.90;99.90
40153;DHT22;26371;56.992;23.912;2024-03-23T04:58:43;4.00;99.90
40153;DHT22;26371;56.992;23.912;2024-03-23T05:01:12;3.90;99.90
40153;DHT22;26371;56.992;23.912;2024-03-23T05:03:38;4.00;99.90
40153;DHT22;26371;56.992;23.912;2024-03-23T05:06:07;4.00;99.90
40153;DHT22;26371;56.992;23.912;2024-03-23T05:08:35;3.90;99.90
40153;DHT22;26371;56.992;23.912;2024-03-23T05:11:03;3.90;99.90
40153;DHT22;26371;56.992;23.912;2024-03-23T05:15:58;4.30;99.90
40153;DHT22;26371;56.992;23.912;2024-03-23T05:18:25;4.20;99.90
40153;DHT22;26371;56.992;23.912;2024-03-23T05:20:56;4.20;99.90
40153;DHT22;26371;56.992;23.912;2024-03-23T05:23:23;4.20;99.90
40153;DHT22;26371;56.992;23.912;2024-03-23T05:25:51;4.20;99.90
40153;DHT22;26371;56.992;23.912;2024-03-23T05:28:18;4.20;99.90
40153;DHT22;26371;56.992;23.912;2024-03-23T05:30:51;4.20;99.90
40153;DHT22;26371;56.992;23.912;2024-03-23T05:33:18;4.20;99.90
40153;DHT22;26371;56.992;23.912;2024-03-23T05:35:46;4.20;99.90
40153;DHT22;26371;56.992;23.912;2024-03-23T05:38:13;4.30;99.90
40153;DHT22;26371;56.992;23.912;2024-03-23T05:40:41;4.30;99.90
40153;DHT22;26371;56.992;23.912;2024-03-23T05:43:08;4.30;99.90
40153;DHT22;26371;56.992;23.912;2024-03-23T05:45:35;4.30;99.90
40153;DHT22;26371;56.992;23.912;2024-03-23T05:48:04;4.40;99.90
40153;DHT22;26371;56.992;23.912;2024-03-23T05:50:31;4.40;99.90
40153;DHT22;26371;56.992;23.912;2024-03-23T05:52:58;4.40;99.90
40153;DHT22;26371;56.992;23.912;2024-03-23T05:55:26;4.50;99.90
40153;DHT22;26371;56.992;23.912;2024-03-23T05:57:53;4.50;99.90
40153;DHT22;26371;56.992;23.912;2024-03-23T06:00:21;4.50;99.90
40153;DHT22;26371;56.992;23.912;2024-03-23T06:02:48;4.60;99.90
40153;DHT22;26371;56.992;23.912;2024-03-23T06:05:17;4.60;99.90
40153;DHT22;26371;56.992;23.912;2024-03-23T06:07:43;4.60;99.90
40153;DHT22;26371;56.992;23.912;2024-03-23T06:10:11;4.60;99.90
40153;DHT22;26371;56.992;23.912;2024-03-23T06:12:37;4.60;99.90
40153;DHT22;26371;56.992;23.912;2024-03-23T06:15:06;4.60;99.90
40153;DHT22;26371;56.992;23.912;2024-03-23T06:17:36;4.70;99.90
40153;DHT22;26371;56.992;23.912;2024-03-23T06:20:05;4.70;99.90
40153;DHT22;26371;56.992;23.912;2024-03-23T06:22:33;4.70;99.90
40153;DHT22;26371;56.992;23.912;2024-03-23T06:25:01;4.80;99.90
40153;DHT22;26371;56.992;23.912;2024-03-23T06:27:28;4.70;99.90
40153;DHT22;26371;56.992;23.912;2024-03-23T06:29:56;4.70;99.90
40153;DHT22;26371;56.992;23.912;2024-03-23T06:32:22;4.70;99.90
40153;DHT22;26371;56.992;23.912;2024-03-23T06:34:50;4.80;99.90
40153;DHT22;26371;56.992;23.912;2024-03-23T06:37:17;4.70;99.90
40153;DHT22;26371;56.992;23.912;2024-03-23T06:39:46;4.90;99.90
40153;DHT22;26371;56.992;23.912;2024-03-23T06:42:13;4.90;99.90
40153;DHT22;26371;56.992;23.912;2024-03-23T06:44:40;4.90;99.90
40153;DHT22;26371;56.992;23.912;2024-03-23T06:47:07;5.10;99.90
40153;DHT22;26371;56.992;23.912;2024-03-23T06:49:35;5.00;99.90
40153;DHT22;26371;56.992;23.912;2024-03-23T06:57:01;5.00;99.90
40153;DHT22;26371;56.992;23.912;2024-03-23T06:59:29;5.00;99.90
40153;DHT22;26371;56.992;23.912;2024-03-23T07:01:56;5.00;99.90
40153;DHT22;26371;56.992;23.912;2024-03-23T07:04:23;5.00;99.90
40153;DHT22;26371;56.992;23.912;2024-03-23T07:06:51;5.10;99.90
40153;DHT22;26371;56.992;23.912;2024-03-23T07:09:18;5.10;99.90
40153;DHT22;26371;56.992;23.912;2024-03-23T07:11:46;5.20;99.90
40153;DHT22;26371;56.992;23.912;2024-03-23T07:14:14;5.20;99.90
40153;DHT22;26371;56.992;23.912;2024-03-23T07:16:41;5.20;99.90
40153;DHT22;26371;56.992;23.912;2024-03-23T07:19:08;5.20;99.90
40153;DHT22;26371;56.992;23.912;2024-03-23T07:21:35;5.20;99.90
40153;DHT22;26371;56.992;23.912;2024-03-23T07:24:02;5.10;99.90
40153;DHT22;26371;56.992;23.912;2024-03-23T07:26:30;5.10;99.90
40153;DHT22;26371;56.992;23.912;2024-03-23T07:28:59;5.00;99.90
40153;DHT22;26371;56.992;23.912;2024-03-23T07:31:28;5.00;99.90
40153;DHT22;26371;56.992;23.912;2024-03-23T07:33:54;5.10;99.90
40153;DHT22;26371;56.992;23.912;2024-03-23T07:36:22;5.00;99.90
40153;DHT22;26371;56.992;23.912;2024-03-23T07:38:49;5.10;99.90
40153;DHT22;26371;56.992;23.912;2024-03-23T07:41:17;5.10;99.90
40153;DHT22;26371;56.992;23.912;2024-03-23T07:43:45;5.20;99.90
40153;DHT22;26371;56.992;23.912;2024-03-23T07:46:14;5.20;99.90
40153;DHT22;26371;56.992;23.912;2024-03-23T07:48:42;5.30;99.90
40153;DHT22;26371;56.992;23.912;2024-03-23T07:51:13;5.40;99.90
40153;DHT22;26371;56.992;23.912;2024-03-23T07:53:43;5.50;99.90
40153;DHT22;26371;56.992;23.912;2024-03-23T07:56:11;5.50;99.90
40153;DHT22;26371;56.992;23.912;2024-03-23T07:58:38;5.60;99.90
40153;DHT22;26371;56.992;23.912;2024-03-23T08:01:07;5.60;99.90
40153;DHT22;26371;56.992;23.912;2024-03-23T08:03:34;5.60;99.90
40153;DHT22;26371;56.992;23.912;2024-03-23T08:06:11;5.60;99.90
40153;DHT22;26371;56.992;23.912;2024-03-23T08:08:39;5.70;99.90
40153;DHT22;26371;56.992;23.912;2024-03-23T08:11:06;5.80;99.90
40153;DHT22;26371;56.992;23.912;2024-03-23T08:13:34;5.90;99.90
40153;DHT22;26371;56.992;23.912;2024-03-23T08:16:03;6.00;99.90
40153;DHT22;26371;56.992;23.912;2024-03-23T08:18:31;6.00;99.90
40153;DHT22;26371;56.992;23.912;2024-03-23T08:20:59;6.00;99.90
40153;DHT22;26371;56.992;23.912;2024-03-23T08:23:28;6.00;99.90
40153;DHT22;26371;56.992;23.912;2024-03-23T08:25:58;6.10;99.90
40153;DHT22;26371;56.992;23.912;2024-03-23T08:28:24;6.20;99.90
40153;DHT22;26371;56.992;23.912;2024-03-23T08:30:52;6.30;99.90
40153;DHT22;26371;56.992;23.912;2024-03-23T08:33:19;6.30;99.90
40153;DHT22;26371;56.992;23.912;2024-03-23T08:35:53;6.40;99.90
40153;DHT22;26371;56.992;23.912;2024-03-23T08:38:21;6.30;99.90
40153;DHT22;26371;56.992;23.912;2024-03-23T08:40:56;6.30;99.90
40153;DHT22;26371;56.992;23.912;2024-03-23T08:43:23;6.20;99.90
40153;DHT22;26371;56.992;23.912;2024-03-23T08:45:51;6.20;99.90
40153;DHT22;26371;56.992;23.912;2024-03-23T08:48:19;6.30;99.90
40153;DHT22;26371;56.992;23.912;2024-03-23T08:50:47;6.40;99.90
40153;DHT22;26371;56.992;23.912;2024-03-23T08:53:24;6.50;99.90
40153;DHT22;26371;56.992;23.912;2024-03-23T08:55:55;6.50;99.90
40153;DHT22;26371;56.992;23.912;2024-03-23T08:58:21;6.60;99.90
40153;DHT22;26371;56.992;23.912;2024-03-23T09:00:50;6.70;99.90
40153;DHT22;26371;56.992;23.912;2024-03-23T09:03:17;6.70;99.90
40153;DHT22;26371;56.992;23.912;2024-03-23T09:05:45;6.70;99.90
40153;DHT22;26371;56.992;23.912;2024-03-23T09:08:12;6.60;99.90
40153;DHT22;26371;56.992;23.912;2024-03-23T09:10:40;6.70;99.90
40153;DHT22;26371;56.992;23.912;2024-03-23T09:13:08;6.60;99.90
40153;DHT22;26371;56.992;23.912;2024-03-23T09:15:37;6.70;99.90
40153;DHT22;26371;56.992;23.912;2024-03-23T09:18:04;6.80;99.90
40153;DHT22;26371;56.992;23.912;2024-03-23T09:20:33;6.90;99.90
40153;DHT22;26371;56.992;23.912;2024-03-23T09:22:59;7.10;99.90
40153;DHT22;26371;56.992;23.912;2024-03-23T09:25:27;7.20;99.90
40153;DHT22;26371;56.992;23.912;2024-03-23T09:27:54;7.20;99.90
40153;DHT22;26371;56.992;23.912;2024-03-23T09:30:23;7.20;99.90
40153;DHT22;26371;56.992;23.912;2024-03-23T09:32:50;7.10;99.90
40153;DHT22;26371;56.992;23.912;2024-03-23T09:35:18;7.10;99.90
40153;DHT22;26371;56.992;23.912;2024-03-23T09:37:45;7.10;99.90
40153;DHT22;26371;56.992;23.912;2024-03-23T09:40:13;7.10;99.90
40153;DHT22;26371;56.992;23.912;2024-03-23T09:42:40;7.10;99.90
40153;DHT22;26371;56.992;23.912;2024-03-23T09:45:17;7.20;99.90
40153;DHT22;26371;56.992;23.912;2024-03-23T09:47:46;7.40;99.90
40153;DHT22;26371;56.992;23.912;2024-03-23T09:50:13;7.50;99.90
40153;DHT22;26371;56.992;23.912;2024-03-23T09:52:40;7.60;99.90
40153;DHT22;26371;56.992;23.912;2024-03-23T09:55:09;7.70;99.90
40153;DHT22;26371;56.992;23.912;2024-03-23T09:57:35;7.90;99.90
40153;DHT22;26371;56.992;23.912;2024-03-23T10:00:04;8.00;99.90
40153;DHT22;26371;56.992;23.912;2024-03-23T10:02:34;8.10;99.90
40153;DHT22;26371;56.992;23.912;2024-03-23T10:05:04;8.00;99.90
40153;DHT22;26371;56.992;23.912;2024-03-23T10:07:30;8.00;99.90
40153;DHT22;26371;56.992;23.912;2024-03-23T10:09:58;8.00;99.90
40153;DHT22;26371;56.992;23.912;2024-03-23T10:12:26;8.00;99.90
40153;DHT22;26371;56.992;23.912;2024-03-23T10:14:52;8.10;99.90
40153;DHT22;26371;56.992;23.912;2024-03-23T10:17:23;8.20;99.90
40153;DHT22;26371;56.992;23.912;2024-03-23T10:19:51;8.30;99.90
40153;DHT22;26371;56.992;23.912;2024-03-23T10:22:21;8.30;99.90
40153;DHT22;26371;56.992;23.912;2024-03-23T10:24:49;8.40;99.90
40153;DHT22;26371;56.992;23.912;2024-03-23T10:27:17;8.30;99.90
40153;DHT22;26371;56.992;23.912;2024-03-23T10:29:45;8.20;99.90
40153;DHT22;26371;56.992;23.912;2024-03-23T10:32:14;8.10;99.90
40153;DHT22;26371;56.992;23.912;2024-03-23T10:34:41;8.10;99.90
40153;DHT22;26371;56.992;23.912;2024-03-23T10:37:09;8.10;99.90
40153;DHT22;26371;56.992;23.912;2024-03-23T10:39:39;8.20;99.90
40153;DHT22;26371;56.992;23.912;2024-03-23T10:42:08;8.40;99.90
40153;DHT22;26371;56.992;23.912;2024-03-23T10:44:35;8.40;99.90
40153;DHT22;26371;56.992;23.912;2024-03-23T10:47:03;8.50;99.90
40153;DHT22;26371;56.992;23.912;2024-03-23T10:49:31;8.70;99.90
40153;DHT22;26371;56.992;23.912;2024-03-23T10:52:00;8.60;99.90
40153;DHT22;26371;56.992;23.912;2024-03-23T10:54:28;8.60;99.90
40153;DHT22;26371;56.992;23.912;2024-03-23T10:57:03;8.60;99.90
40153;DHT22;26371;56.992;23.912;2024-03-23T10:59:31;8.60;99.90
40153;DHT22;26371;56.992;23.912;2024-03-23T11:02:00;8.60;99.90
40153;DHT22;26371;56.992;23.912;2024-03-23T11:04:33;8.70;99.90
40153;DHT22;26371;56.992;23.912;2024-03-23T11:07:01;8.70;99.90
40153;DHT22;26371;56.992;23.912;2024-03-23T11:09:41;8.80;99.90
40153;DHT22;26371;56.992;23.912;2024-03-23T11:12:30;8.80;99.90
40153;DHT22;26371;56.992;23.912;2024-03-23T11:15:04;8.80;99.90
40153;DHT22;26371;56.992;23.912;2024-03-23T11:17:32;8.90;99.90
40153;DHT22;26371;56.992;23.912;2024-03-23T11:19:59;8.90;99.90
40153;DHT22;26371;56.992;23.912;2024-03-23T11:22:41;9.10;99.90
40153;DHT22;26371;56.992;23.912;2024-03-23T11:25:16;9.30;99.90
40153;DHT22;26371;56.992;23.912;2024-03-23T11:27:45;9.20;99.90
40153;DHT22;26371;56.992;23.912;2024-03-23T11:30:14;9.10;99.90
40153;DHT22;26371;56.992;23.912;2024-03-23T11:32:42;9.10;99.90
40153;DHT22;26371;56.992;23.912;2024-03-23T11:35:09;9.10;99.90
40153;DHT22;26371;56.992;23.912;2024-03-23T11:37:38;9.20;99.90
40153;DHT22;26371;56.992;23.912;2024-03-23T11:40:18;9.30;99.90
40153;DHT22;26371;56.992;23.912;2024-03-23T11:42:47;9.30;99.90
40153;DHT22;26371;56.992;23.912;2024-03-23T11:45:21;9.30;99.90
40153;DHT22;26371;56.992;23.912;2024-03-23T11:48:00;9.20;99.90
40153;DHT22;26371;56.992;23.912;2024-03-23T11:50:27;9.30;99.90
40153;DHT22;26371;56.992;23.912;2024-03-23T11:53:13;9.20;99.90
40153;DHT22;26371;56.992;23.912;2024-03-23T11:55:42;9.20;99.90
40153;DHT22;26371;56.992;23.912;2024-03-23T11:58:11;9.30;99.90
40153;DHT22;26371;56.992;23.912;2024-03-23T12:00:38;9.30;99.90
40153;DHT22;26371;56.992;23.912;2024-03-23T12:03:07;9.30;99.90
40153;DHT22;26371;56.992;23.912;2024-03-23T12:05:34;9.30;99.90
40153;DHT22;26371;56.992;23.912;2024-03-23T12:08:19;9.40;99.90
40153;DHT22;26371;56.992;23.912;2024-03-23T12:10:50;9.30;99.90
40153;DHT22;26371;56.992;23.912;2024-03-23T12:13:21;9.30;99.90
40153;DHT22;26371;56.992;23.912;2024-03-23T12:15:49;9.30;99.90
40153;DHT22;26371;56.992;23.912;2024-03-23T12:18:23;9.20;99.90
40153;DHT22;26371;56.992;23.912;2024-03-23T12:20:51;9.10;99.90
40153;DHT22;26371;56.992;23.912;2024-03-23T12:23:21;9.10;99.90
40153;DHT22;26371;56.992;23.912;2024-03-23T12:25:49;9.10;99.90
40153;DHT22;26371;56.992;23.912;2024-03-23T12:28:17;9.20;99.90
40153;DHT22;26371;56.992;23.912;2024-03-23T12:30:45;9.30;99.90
40153;DHT22;26371;56.992;23.912;2024-03-23T12:33:13;9.30;99.90
40153;DHT22;26371;56.992;23.912;2024-03-23T12:35:39;9.30;99.90
40153;DHT22;26371;56.992;23.912;2024-03-23T12:38:07;9.20;99.90
40153;DHT22;26371;56.992;23.912;2024-03-23T12:40:34;9.20;99.90
40153;DHT22;26371;56.992;23.912;2024-03-23T12:43:01;9.30;99.90
40153;DHT22;26371;56.992;23.912;2024-03-23T12:45:28;9.30;99.90
40153;DHT22;26371;56.992;23.912;2024-03-23T12:47:57;9.30;99.90
40153;DHT22;26371;56.992;23.912;2024-03-23T12:50:25;9.30;99.90
40153;DHT22;26371;56.992;23.912;2024-03-23T12:52:52;9.40;99.90
40153;DHT22;26371;56.992;23.912;2024-03-23T12:55:19;9.40;99.90
40153;DHT22;26371;56.992;23.912;2024-03-23T12:57:48;9.40;99.90
40153;DHT22;26371;56.992;23.912;2024-03-23T13:00:16;9.50;99.90
40153;DHT22;26371;56.992;23.912;2024-03-23T13:02:44;9.50;99.90
40153;DHT22;26371;56.992;23.912;2024-03-23T13:05:12;9.50;99.90
40153;DHT22;26371;56.992;23.912;2024-03-23T13:07:40;9.60;99.90
40153;DHT22;26371;56.992;23.912;2024-03-23T13:10:07;9.70;99.90
40153;DHT22;26371;56.992;23.912;2024-03-23T13:12:36;9.70;99.90
40153;DHT22;26371;56.992;23.912;2024-03-23T13:15:07;9.70;99.90
40153;DHT22;26371;56.992;23.912;2024-03-23T13:17:35;9.70;99.90
40153;DHT22;26371;56.992;23.912;2024-03-23T13:20:02;9.70;99.90
40153;DHT22;26371;56.992;23.912;2024-03-23T13:22:31;9.60;99.90
40153;DHT22;26371;56.992;23.912;2024-03-23T13:24:58;9.70;99.90
40153;DHT22;26371;56.992;23.912;2024-03-23T13:27:26;9.70;99.90
40153;DHT22;26371;56.992;23.912;2024-03-23T13:29:52;9.70;99.90
40153;DHT22;26371;56.992;23.912;2024-03-23T13:32:20;9.60;99.90
40153;DHT22;26371;56.992;23.912;2024-03-23T13:34:47;9.60;99.90
40153;DHT22;26371;56.992;23.912;2024-03-23T13:37:16;9.60;99.90
40153;DHT22;26371;56.992;23.912;2024-03-23T13:39:44;9.50;99.90
40153;DHT22;26371;56.992;23.912;2024-03-23T13:42:12;9.50;99.90
40153;DHT22;26371;56.992;23.912;2024-03-23T13:44:39;9.50;99.90
40153;DHT22;26371;56.992;23.912;2024-03-23T13:47:07;9.50;99.70
40153;DHT22;26371;56.992;23.912;2024-03-23T13:49:35;9.50;99.80
40153;DHT22;26371;56.992;23.912;2024-03-23T13:52:04;9.50;99.90
40153;DHT22;26371;56.992;23.912;2024-03-23T13:54:30;9.50;99.90
40153;DHT22;26371;56.992;23.912;2024-03-23T13:56:59;9.40;98.90
40153;DHT22;26371;56.992;23.912;2024-03-23T13:59:26;9.50;98.90
40153;DHT22;26371;56.992;23.912;2024-03-23T14:01:54;9.50;99.90
40153;DHT22;26371;56.992;23.912;2024-03-23T14:04:23;9.60;99.90
40153;DHT22;26371;56.992;23.912;2024-03-23T14:06:51;9.70;99.90
40153;DHT22;26371;56.992;23.912;2024-03-23T14:09:18;9.70;99.10
40153;DHT22;26371;56.992;23.912;2024-03-23T14:11:49;9.70;99.70
40153;DHT22;26371;56.992;23.912;2024-03-23T14:14:18;9.70;99.60
40153;DHT22;26371;56.992;23.912;2024-03-23T14:16:48;9.80;99.80
40153;DHT22;26371;56.992;23.912;2024-03-23T14:19:15;9.80;99.40
40153;DHT22;26371;56.992;23.912;2024-03-23T14:21:43;9.90;99.40
40153;DHT22;26371;56.992;23.912;2024-03-23T14:24:09;9.90;99.90
40153;DHT22;26371;56.992;23.912;2024-03-23T14:26:37;9.90;99.30
40153;DHT22;26371;56.992;23.912;2024-03-23T14:29:05;9.70;97.40
40153;DHT22;26371;56.992;23.912;2024-03-23T14:31:34;9.60;98.10
40153;DHT22;26371;56.992;23.912;2024-03-23T14:34:00;9.50;98.10
40153;DHT22;26371;56.992;23.912;2024-03-23T14:36:28;9.40;98.50
40153;DHT22;26371;56.992;23.912;2024-03-23T14:38:55;9.30;96.50
40153;DHT22;26371;56.992;23.912;2024-03-23T14:41:22;9.20;97.70
40153;DHT22;26371;56.992;23.912;2024-03-23T14:43:49;9.10;96.90
40153;DHT22;26371;56.992;23.912;2024-03-23T14:46:19;9.00;96.50
40153;DHT22;26371;56.992;23.912;2024-03-23T14:48:48;8.90;97.60
40153;DHT22;26371;56.992;23.912;2024-03-23T14:51:16;8.90;98.80
40153;DHT22;26371;56.992;23.912;2024-03-23T14:53:46;8.90;97.70
40153;DHT22;26371;56.992;23.912;2024-03-23T14:56:14;8.90;98.20
40153;DHT22;26371;56.992;23.912;2024-03-23T14:58:42;8.80;98.10
40153;DHT22;26371;56.992;23.912;2024-03-23T15:01:11;8.70;97.80
40153;DHT22;26371;56.992;23.912;2024-03-23T15:03:38;8.70;98.70
40153;DHT22;26371;56.992;23.912;2024-03-23T15:06:08;8.70;99.20
40153;DHT22;26371;56.992;23.912;2024-03-23T15:08:35;8.60;98.30
40153;DHT22;26371;56.992;23.912;2024-03-23T15:11:04;8.50;99.10
40153;DHT22;26371;56.992;23.912;2024-03-23T15:13:31;8.50;98.70
40153;DHT22;26371;56.992;23.912;2024-03-23T15:15:59;8.40;99.10
40153;DHT22;26371;56.992;23.912;2024-03-23T15:18:26;8.40;99.70
40153;DHT22;26371;56.992;23.912;2024-03-23T15:20:55;8.40;99.90
40153;DHT22;26371;56.992;23.912;2024-03-23T15:23:23;8.40;99.90
40153;DHT22;26371;56.992;23.912;2024-03-23T15:25:54;8.40;99.90
40153;DHT22;26371;56.992;23.912;2024-03-23T15:28:21;8.40;99.90
40153;DHT22;26371;56.992;23.912;2024-03-23T15:30:49;8.30;99.90
40153;DHT22;26371;56.992;23.912;2024-03-23T15:33:16;8.30;99.90
40153;DHT22;26371;56.992;23.912;2024-03-23T15:35:43;8.30;99.90
40153;DHT22;26371;56.992;23.912;2024-03-23T15:38:10;8.20;99.90
40153;DHT22;26371;56.992;23.912;2024-03-23T15:40:39;8.10;99.90
40153;DHT22;26371;56.992;23.912;2024-03-23T15:43:06;8.00;99.90
40153;DHT22;26371;56.992;23.912;2024-03-23T15:45:33;8.00;99.90
40153;DHT22;26371;56.992;23.912;2024-03-23T15:48:00;8.00;99.90
40153;DHT22;26371;56.992;23.912;2024-03-23T15:50:28;8.00;99.90
40153;DHT22;26371;56.992;23.912;2024-03-23T15:52:54;7.90;99.90
40153;DHT22;26371;56.992;23.912;2024-03-23T15:55:22;7.90;99.90
40153;DHT22;26371;56.992;23.912;2024-03-23T15:57:50;7.80;99.90
40153;DHT22;26371;56.992;23.912;2024-03-23T16:00:19;7.70;99.90
40153;DHT22;26371;56.992;23.912;2024-03-23T16:02:45;7.70;99.90
40153;DHT22;26371;56.992;23.912;2024-03-23T16:05:14;7.60;99.90
40153;DHT22;26371;56.992;23.912;2024-03-23T16:07:41;7.60;99.90
40153;DHT22;26371;56.992;23.912;2024-03-23T16:10:09;7.50;99.90
40153;DHT22;26371;56.992;23.912;2024-03-23T16:12:36;7.50;99.90
40153;DHT22;26371;56.992;23.912;2024-03-23T16:15:06;7.40;99.90
40153;DHT22;26371;56.992;23.912;2024-03-23T16:17:33;7.40;99.90
40153;DHT22;26371;56.992;23.912;2024-03-23T16:20:02;7.30;99.90
40153;DHT22;26371;56.992;23.912;2024-03-23T16:22:29;7.30;99.90
40153;DHT22;26371;56.992;23.912;2024-03-23T16:24:57;7.30;99.90
40153;DHT22;26371;56.992;23.912;2024-03-23T16:27:24;7.20;99.90
40153;DHT22;26371;56.992;23.912;2024-03-23T16:29:51;7.20;99.90
40153;DHT22;26371;56.992;23.912;2024-03-23T16:32:19;7.10;99.90
40153;DHT22;26371;56.992;23.912;2024-03-23T16:34:56;7.00;99.90
40153;DHT22;26371;56.992;23.912;2024-03-23T16:37:24;7.00;99.90
40153;DHT22;26371;56.992;23.912;2024-03-23T16:39:53;6.90;99.90